Time,TemperatureF,DewpointF,PressureIn,WindDirection,WindDirectionDegrees,WindSpeedMPH,WindSpeedGustMPH,Humidity,HourlyPrecipIn,Conditions,Clouds,dailyrainin,SolarRadiationWatts/m^2,SoftwareType,DateUTC
2013-05-19 00:02:00,75.6,71.1,29.96,SE,146,5.0,9.0,86,0.00,,,0.02,0.0,meteohub,2013-05-19 05:02:00,
2013-05-19 00:07:00,75.6,71.1,29.96,South,184,4.0,9.0,86,0.00,,,0.00,0.0,meteohub,2013-05-19 05:07:00,
2013-05-19 00:12:00,75.4,70.9,29.96,SSE,157,4.0,7.0,86,0.00,,,0.00,0.0,meteohub,2013-05-19 05:12:00,
2013-05-19 00:17:00,75.4,71.2,29.96,SSE,161,3.0,6.0,87,0.00,,,0.00,0.0,meteohub,2013-05-19 05:17:00,
2013-05-19 00:22:00,75.2,71.1,29.96,South,184,2.0,6.0,87,0.00,,,0.00,0.0,meteohub,2013-05-19 05:22:00,
2013-05-19 00:27:00,75.0,70.9,29.96,South,182,1.0,5.0,87,0.00,,,0.00,0.0,meteohub,2013-05-19 05:27:00,
2013-05-19 00:32:00,75.0,71.2,29.96,SSW,201,0.0,5.0,88,0.00,,,0.00,0.0,meteohub,2013-05-19 05:32:00,
2013-05-19 00:37:00,75.0,71.2,29.96,SSW,200,3.0,5.0,88,0.00,,,0.00,0.0,meteohub,2013-05-19 05:37:00,
2013-05-19 00:42:00,74.8,71.1,29.96,SSW,198,3.0,5.0,88,0.00,,,0.00,0.0,meteohub,2013-05-19 05:42:00,
2013-05-19 00:47:00,74.8,71.1,29.95,South,169,1.0,6.0,88,0.00,,,0.00,0.0,meteohub,2013-05-19 05:47:00,
2013-05-19 00:52:00,74.8,71.1,29.95,South,180,0.0,6.0,88,0.00,,,0.00,0.0,meteohub,2013-05-19 05:52:00,
2013-05-19 00:57:00,74.8,71.1,29.95,South,180,3.0,6.0,88,0.00,,,0.00,0.0,meteohub,2013-05-19 05:57:00,
2013-05-19 01:02:00,74.7,70.9,29.95,SSE,158,2.0,6.0,88,0.00,,,0.00,0.0,meteohub,2013-05-19 06:02:00,
2013-05-19 01:07:00,74.5,70.7,29.94,SSE,150,5.0,6.0,88,0.00,,,0.00,0.0,meteohub,2013-05-19 06:07:00,
2013-05-19 01:12:00,74.5,70.7,29.94,South,175,2.0,7.0,88,0.00,,,0.00,0.0,meteohub,2013-05-19 06:12:00,
2013-05-19 01:17:00,74.5,71.1,29.94,South,178,4.0,7.0,89,0.00,,,0.00,0.0,meteohub,2013-05-19 06:17:00,
2013-05-19 01:22:00,74.5,71.1,29.94,South,180,4.0,9.0,89,0.00,,,0.00,0.0,meteohub,2013-05-19 06:22:00,
2013-05-19 01:27:00,74.3,70.9,29.94,South,170,5.0,9.0,89,0.00,,,0.00,0.0,meteohub,2013-05-19 06:27:00,
2013-05-19 01:32:00,74.1,70.7,29.94,South,176,1.0,9.0,89,0.00,,,0.00,0.0,meteohub,2013-05-19 06:32:00,
2013-05-19 01:37:00,74.1,70.7,29.94,South,176,0.0,6.0,89,0.00,,,0.00,0.0,meteohub,2013-05-19 06:37:00,
2013-05-19 01:42:00,74.1,70.7,29.94,South,180,0.0,5.0,89,0.00,,,0.00,0.0,meteohub,2013-05-19 06:42:00,
2013-05-19 01:47:00,74.1,71.1,29.95,WSW,240,3.0,5.0,90,0.00,,,0.00,0.0,meteohub,2013-05-19 06:47:00,
2013-05-19 01:52:00,73.9,70.9,29.94,SSW,192,1.0,4.0,90,0.00,,,0.00,0.0,meteohub,2013-05-19 06:52:00,
2013-05-19 01:57:00,73.9,70.9,29.94,SSW,192,3.0,4.0,90,0.00,,,0.00,0.0,meteohub,2013-05-19 06:57:00,
2013-05-19 02:02:00,73.9,70.9,29.94,SSW,200,2.0,4.0,90,0.00,,,0.00,0.0,meteohub,2013-05-19 07:02:00,
2013-05-19 02:07:00,73.9,70.9,29.94,SSW,210,2.0,3.0,90,0.00,,,0.00,0.0,meteohub,2013-05-19 07:07:00,
2013-05-19 02:12:00,73.9,70.9,29.94,South,190,3.0,5.0,90,0.00,,,0.00,0.0,meteohub,2013-05-19 07:12:00,
2013-05-19 02:17:00,73.9,70.9,29.94,SSE,157,4.0,5.0,90,0.00,,,0.00,0.0,meteohub,2013-05-19 07:17:00,
2013-05-19 02:22:00,73.9,70.9,29.94,SSW,198,0.0,6.0,90,0.00,,,0.00,0.0,meteohub,2013-05-19 07:22:00,
2013-05-19 02:27:00,73.9,70.9,29.94,South,173,1.0,6.0,90,0.00,,,0.00,0.0,meteohub,2013-05-19 07:27:00,
2013-05-19 02:32:00,73.9,70.9,29.94,SW,218,3.0,6.0,90,0.00,,,0.00,0.0,meteohub,2013-05-19 07:32:00,
2013-05-19 02:37:00,73.9,70.9,29.93,SSE,165,1.0,6.0,90,0.00,,,0.00,0.0,meteohub,2013-05-19 07:37:00,
2013-05-19 02:42:00,73.9,70.9,29.93,SSW,203,3.0,9.0,90,0.00,,,0.00,0.0,meteohub,2013-05-19 07:42:00,
2013-05-19 02:47:00,73.9,70.9,29.93,SW,215,3.0,9.0,90,0.00,,,0.00,0.0,meteohub,2013-05-19 07:47:00,
2013-05-19 02:52:00,73.9,70.9,29.93,South,177,3.0,9.0,90,0.00,,,0.00,0.0,meteohub,2013-05-19 07:52:00,
2013-05-19 02:57:00,73.9,71.1,29.94,WSW,240,3.0,6.0,91,0.00,,,0.00,0.0,meteohub,2013-05-19 07:57:00,
2013-05-19 03:02:00,73.8,70.9,29.94,SSW,202,3.0,6.0,91,0.00,,,0.00,0.0,meteohub,2013-05-19 08:02:00,
2013-05-19 03:07:00,73.9,71.1,29.94,SSW,204,3.0,6.0,91,0.00,,,0.00,0.0,meteohub,2013-05-19 08:07:00,
2013-05-19 03:12:00,73.8,70.9,29.94,SW,216,2.0,6.0,91,0.00,,,0.00,0.0,meteohub,2013-05-19 08:12:00,
2013-05-19 03:17:00,73.8,70.9,29.94,SSE,164,1.0,6.0,91,0.00,,,0.00,0.0,meteohub,2013-05-19 08:17:00,
2013-05-19 03:22:00,73.8,70.9,29.94,South,185,3.0,6.0,91,0.00,,,0.00,0.0,meteohub,2013-05-19 08:22:00,
2013-05-19 03:26:00,73.8,70.9,29.94,SSW,192,6.0,6.0,91,0.00,,,0.00,0.0,meteohub,2013-05-19 08:26:00,
2013-05-19 03:31:00,73.8,70.9,29.94,SSW,213,3.0,7.0,91,0.00,,,0.00,0.0,meteohub,2013-05-19 08:31:00,
2013-05-19 03:36:00,73.6,70.7,29.94,SW,230,5.0,8.0,91,0.00,,,0.00,0.0,meteohub,2013-05-19 08:36:00,
2013-05-19 03:41:00,73.6,70.7,29.94,SW,223,1.0,8.0,91,0.00,,,0.00,0.0,meteohub,2013-05-19 08:41:00,
2013-05-19 03:47:00,73.6,70.7,29.94,SW,234,2.0,7.0,91,0.00,,,0.00,0.0,meteohub,2013-05-19 08:47:00,
2013-05-19 03:51:00,73.4,70.5,29.94,SW,226,2.0,7.0,91,0.00,,,0.00,0.0,meteohub,2013-05-19 08:51:00,
2013-05-19 03:56:00,73.4,70.5,29.94,WSW,238,0.0,5.0,91,0.00,,,0.00,0.0,meteohub,2013-05-19 08:56:00,
2013-05-19 04:01:00,73.2,70.5,29.94,SW,214,2.0,5.0,91,0.00,,,0.00,0.0,meteohub,2013-05-19 09:01:00,
2013-05-19 04:06:00,73.2,70.5,29.94,SW,217,2.0,6.0,91,0.00,,,0.00,0.0,meteohub,2013-05-19 09:06:00,
2013-05-19 04:11:00,73.2,70.5,29.94,SW,234,4.0,6.0,91,0.00,,,0.00,0.0,meteohub,2013-05-19 09:11:00,
2013-05-19 04:16:00,73.2,70.7,29.94,SW,221,3.0,6.0,92,0.00,,,0.00,0.0,meteohub,2013-05-19 09:16:00,
2013-05-19 04:21:00,73.0,70.5,29.94,SSW,210,2.0,6.0,92,0.00,,,0.00,0.0,meteohub,2013-05-19 09:21:00,
2013-05-19 04:26:00,73.2,70.7,29.94,SW,228,3.0,5.0,92,0.00,,,0.00,0.0,meteohub,2013-05-19 09:26:00,
2013-05-19 04:32:00,73.2,70.5,29.95,WSW,246,3.0,6.0,91,0.00,,,0.00,0.0,meteohub,2013-05-19 09:32:00,
2013-05-19 04:37:00,73.0,70.3,29.95,WSW,252,2.0,6.0,91,0.00,,,0.00,0.0,meteohub,2013-05-19 09:37:00,
2013-05-19 04:42:00,73.0,70.3,29.95,SW,225,4.0,6.0,91,0.00,,,0.00,0.0,meteohub,2013-05-19 09:42:00,
2013-05-19 04:47:00,73.0,70.3,29.95,SW,221,3.0,8.0,91,0.00,,,0.00,0.0,meteohub,2013-05-19 09:47:00,
2013-05-19 04:52:00,73.0,70.5,29.95,SW,226,3.0,8.0,92,0.00,,,0.00,0.0,meteohub,2013-05-19 09:52:00,
2013-05-19 04:57:00,72.9,70.3,29.95,SSW,202,3.0,8.0,92,0.00,,,0.00,0.0,meteohub,2013-05-19 09:57:00,
2013-05-19 05:02:00,72.9,70.3,29.95,SW,217,2.0,9.0,92,0.00,,,0.00,0.0,meteohub,2013-05-19 10:02:00,
2013-05-19 05:07:00,72.9,70.3,29.95,West,275,7.0,11.0,92,0.00,,,0.00,0.0,meteohub,2013-05-19 10:07:00,
2013-05-19 05:12:00,72.9,70.3,29.95,West,265,7.0,11.0,92,0.00,,,0.00,0.0,meteohub,2013-05-19 10:12:00,
2013-05-19 05:17:00,72.7,70.2,29.96,SSW,211,7.0,11.0,92,0.00,,,0.00,0.0,meteohub,2013-05-19 10:17:00,
2013-05-19 05:22:00,72.7,70.2,29.96,WSW,245,5.0,11.0,92,0.00,,,0.00,0.0,meteohub,2013-05-19 10:22:00,
2013-05-19 05:27:00,72.7,70.2,29.96,WSW,248,3.0,10.0,92,0.00,,,0.00,0.0,meteohub,2013-05-19 10:27:00,
2013-05-19 05:31:00,72.7,70.2,29.96,WSW,254,7.0,10.0,92,0.00,,,0.00,0.0,meteohub,2013-05-19 10:31:00,
2013-05-19 05:36:00,72.7,70.2,29.96,WSW,248,7.0,10.0,92,0.00,,,0.00,0.0,meteohub,2013-05-19 10:36:00,
2013-05-19 05:41:00,72.7,70.2,29.96,WSW,258,5.0,11.0,92,0.00,,,0.00,0.0,meteohub,2013-05-19 10:41:00,
2013-05-19 05:46:00,72.7,70.2,29.96,WSW,253,6.0,11.0,92,0.00,,,0.00,0.0,meteohub,2013-05-19 10:46:00,
2013-05-19 05:52:00,72.7,70.2,29.96,SW,231,3.0,11.0,92,0.00,,,0.00,0.0,meteohub,2013-05-19 10:52:00,
2013-05-19 05:56:00,72.7,70.2,29.97,WSW,249,5.0,8.0,92,0.00,,,0.00,0.0,meteohub,2013-05-19 10:56:00,
2013-05-19 06:01:00,72.7,70.2,29.97,SW,233,4.0,7.0,92,0.00,,,0.00,5.0,meteohub,2013-05-19 11:01:00,
2013-05-19 06:06:00,72.7,70.2,29.97,SW,234,4.0,7.0,92,0.00,,,0.00,7.0,meteohub,2013-05-19 11:06:00,
2013-05-19 06:12:00,72.7,70.2,29.97,SW,229,2.0,7.0,92,0.00,,,0.00,9.0,meteohub,2013-05-19 11:12:00,
2013-05-19 06:17:00,72.7,70.2,29.97,SW,234,1.0,7.0,92,0.00,,,0.00,18.0,meteohub,2013-05-19 11:17:00,
2013-05-19 06:21:00,72.7,70.2,29.98,SW,236,6.0,6.0,92,0.00,,,0.00,21.0,meteohub,2013-05-19 11:21:00,
2013-05-19 06:26:00,72.7,70.2,29.98,WSW,240,2.0,9.0,92,0.00,,,0.00,16.0,meteohub,2013-05-19 11:26:00,
2013-05-19 06:31:00,72.7,70.2,29.98,SSW,206,2.0,9.0,92,0.00,,,0.00,23.0,meteohub,2013-05-19 11:31:00,
2013-05-19 06:36:00,72.7,70.2,29.98,SW,215,4.0,9.0,92,0.00,,,0.00,18.0,meteohub,2013-05-19 11:36:00,
2013-05-19 06:41:00,72.7,70.2,29.98,SW,222,1.0,6.0,92,0.00,,,0.00,16.0,meteohub,2013-05-19 11:41:00,
2013-05-19 06:46:00,72.7,70.2,29.98,SSW,209,3.0,6.0,92,0.00,,,0.00,23.0,meteohub,2013-05-19 11:46:00,
2013-05-19 06:51:00,72.7,70.2,29.99,SW,227,3.0,6.0,92,0.00,,,0.00,23.0,meteohub,2013-05-19 11:51:00,
2013-05-19 06:56:00,72.7,70.2,29.99,SW,225,2.0,6.0,92,0.00,,,0.00,25.0,meteohub,2013-05-19 11:56:00,
2013-05-19 07:02:00,72.7,70.2,29.99,SSW,194,1.0,6.0,92,0.00,,,0.00,39.0,meteohub,2013-05-19 12:02:00,
2013-05-19 07:07:00,72.7,70.2,29.99,SSW,207,2.0,6.0,92,0.00,,,0.00,32.0,meteohub,2013-05-19 12:07:00,
2013-05-19 07:12:00,72.7,70.2,29.99,South,181,4.0,7.0,92,0.00,,,0.00,35.0,meteohub,2013-05-19 12:12:00,
2013-05-19 07:17:00,72.7,70.2,29.99,SW,221,3.0,7.0,92,0.00,,,0.00,33.0,meteohub,2013-05-19 12:17:00,
2013-05-19 07:22:00,72.7,70.2,29.99,SW,227,2.0,7.0,92,0.00,,,0.00,32.0,meteohub,2013-05-19 12:22:00,
2013-05-19 07:27:00,72.7,70.2,29.99,SW,234,3.0,8.0,92,0.00,,,0.00,28.0,meteohub,2013-05-19 12:27:00,
2013-05-19 07:32:00,72.7,70.2,29.99,SSW,210,5.0,8.0,92,0.00,,,0.00,40.0,meteohub,2013-05-19 12:32:00,
2013-05-19 07:37:00,72.7,70.2,29.99,SW,223,5.0,8.0,92,0.00,,,0.00,63.0,meteohub,2013-05-19 12:37:00,
2013-05-19 07:41:00,72.9,70.3,29.99,SSW,201,4.0,7.0,92,0.00,,,0.00,76.0,meteohub,2013-05-19 12:41:00,
2013-05-19 07:46:00,72.9,70.2,29.99,SSW,196,3.0,7.0,91,0.00,,,0.00,81.0,meteohub,2013-05-19 12:46:00,
2013-05-19 07:51:00,72.9,70.2,29.99,SSE,163,5.0,7.0,91,0.00,,,0.00,74.0,meteohub,2013-05-19 12:51:00,
2013-05-19 07:57:00,72.9,70.2,29.99,SW,215,4.0,7.0,91,0.00,,,0.00,95.0,meteohub,2013-05-19 12:57:00,
2013-05-19 08:02:00,73.0,70.3,29.99,SW,217,6.0,7.0,91,0.00,,,0.00,104.0,meteohub,2013-05-19 13:02:00,
2013-05-19 08:07:00,73.0,70.0,29.99,SSW,201,3.0,7.0,90,0.00,,,0.00,123.0,meteohub,2013-05-19 13:07:00,
2013-05-19 08:12:00,73.2,70.2,29.99,SSE,150,0.0,7.0,90,0.00,,,0.00,127.0,meteohub,2013-05-19 13:12:00,
2013-05-19 08:17:00,73.6,70.5,30.00,SSE,166,1.0,7.0,90,0.00,,,0.00,111.0,meteohub,2013-05-19 13:17:00,
2013-05-19 08:22:00,73.6,70.5,30.00,SSW,203,4.0,6.0,90,0.00,,,0.00,77.0,meteohub,2013-05-19 13:22:00,
2013-05-19 08:27:00,73.6,70.5,29.99,SW,229,5.0,6.0,90,0.00,,,0.00,118.0,meteohub,2013-05-19 13:27:00,
2013-05-19 08:32:00,73.6,70.5,29.99,SW,227,3.0,6.0,90,0.00,,,0.00,105.0,meteohub,2013-05-19 13:32:00,
2013-05-19 08:38:00,73.6,70.2,29.99,SW,217,1.0,6.0,89,0.00,,,0.00,83.0,meteohub,2013-05-19 13:38:00,
2013-05-19 08:43:00,73.6,70.2,29.99,SW,231,3.0,7.0,89,0.00,,,0.00,69.0,meteohub,2013-05-19 13:43:00,
2013-05-19 08:47:00,73.6,70.2,30.00,WSW,254,4.0,7.0,89,0.00,,,0.00,86.0,meteohub,2013-05-19 13:47:00,
2013-05-19 08:52:00,73.6,70.2,30.00,WSW,246,7.0,7.0,89,0.00,,,0.00,69.0,meteohub,2013-05-19 13:52:00,
2013-05-19 08:57:00,73.6,70.2,30.00,WSW,258,4.0,7.0,89,0.00,,,0.00,63.0,meteohub,2013-05-19 13:57:00,
2013-05-19 09:03:00,73.2,69.8,30.00,WSW,254,5.0,7.0,89,0.00,,,0.00,111.0,meteohub,2013-05-19 14:03:00,
2013-05-19 09:08:00,73.2,70.2,30.00,SSW,203,3.0,8.0,90,0.00,,,0.00,132.0,meteohub,2013-05-19 14:08:00,
2013-05-19 09:12:00,73.4,70.3,30.00,SW,215,1.0,8.0,90,0.00,,,0.00,171.0,meteohub,2013-05-19 14:12:00,
2013-05-19 09:17:00,73.6,70.5,30.00,SW,219,3.0,8.0,90,0.00,,,0.00,132.0,meteohub,2013-05-19 14:17:00,
2013-05-19 09:22:00,73.4,70.3,30.00,SW,229,5.0,6.0,90,0.00,,,0.00,105.0,meteohub,2013-05-19 14:22:00,
2013-05-19 09:27:00,73.2,70.2,30.00,SW,217,3.0,8.0,90,0.00,,,0.00,102.0,meteohub,2013-05-19 14:27:00,
2013-05-19 09:32:00,73.2,70.2,30.00,SW,223,4.0,8.0,90,0.00,,,0.00,206.0,meteohub,2013-05-19 14:32:00,
2013-05-19 09:37:00,73.2,70.2,30.00,SSW,202,6.0,8.0,90,0.00,,,0.00,213.0,meteohub,2013-05-19 14:37:00,
2013-05-19 09:42:00,73.4,70.3,30.00,South,180,4.0,8.0,90,0.00,,,0.00,162.0,meteohub,2013-05-19 14:42:00,
2013-05-19 09:47:00,73.6,70.2,30.00,SSW,210,6.0,8.0,89,0.00,,,0.00,156.0,meteohub,2013-05-19 14:47:00,
2013-05-19 09:52:00,73.4,70.3,30.00,South,170,3.0,8.0,90,0.00,,,0.00,118.0,meteohub,2013-05-19 14:52:00,
2013-05-19 09:57:00,73.2,70.2,30.00,WSW,240,4.0,8.0,90,0.00,,,0.00,111.0,meteohub,2013-05-19 14:57:00,
2013-05-19 10:02:00,73.2,70.2,30.00,SSW,206,4.0,7.0,90,0.00,,,0.00,123.0,meteohub,2013-05-19 15:02:00,
2013-05-19 10:07:00,73.2,70.2,30.00,SW,222,2.0,8.0,90,0.00,,,0.00,91.0,meteohub,2013-05-19 15:07:00,
2013-05-19 10:12:00,73.0,70.0,30.00,WSW,252,3.0,8.0,90,0.00,,,0.00,114.0,meteohub,2013-05-19 15:12:00,
2013-05-19 10:17:00,73.0,70.0,30.00,SW,235,4.0,8.0,90,0.00,,,0.00,186.0,meteohub,2013-05-19 15:17:00,
2013-05-19 10:22:00,73.2,70.2,29.99,SSW,199,4.0,6.0,90,0.00,,,0.00,114.0,meteohub,2013-05-19 15:22:00,
2013-05-19 10:27:00,73.2,70.2,30.00,SSW,200,2.0,6.0,90,0.00,,,0.00,121.0,meteohub,2013-05-19 15:27:00,
2013-05-19 10:32:00,73.4,70.3,30.00,SW,217,3.0,6.0,90,0.00,,,0.00,253.0,meteohub,2013-05-19 15:32:00,
2013-05-19 10:37:00,73.6,70.5,29.99,SW,228,4.0,6.0,90,0.00,,,0.00,190.0,meteohub,2013-05-19 15:37:00,
2013-05-19 10:42:00,73.8,70.3,29.99,WSW,246,5.0,6.0,89,0.00,,,0.00,100.0,meteohub,2013-05-19 15:42:00,
2013-05-19 10:47:00,73.8,70.3,29.99,SW,232,4.0,8.0,89,0.00,,,0.00,141.0,meteohub,2013-05-19 15:47:00,
2013-05-19 10:52:00,73.8,70.0,30.00,SW,229,3.0,11.0,88,0.00,,,0.00,125.0,meteohub,2013-05-19 15:52:00,
2013-05-19 10:57:00,73.8,70.0,30.00,SW,217,5.0,11.0,88,0.00,,,0.00,130.0,meteohub,2013-05-19 15:57:00,
2013-05-19 11:02:00,73.8,70.0,30.00,SW,234,4.0,11.0,88,0.00,,,0.00,211.0,meteohub,2013-05-19 16:02:00,
2013-05-19 11:07:00,73.9,70.2,30.00,SSW,207,2.0,7.0,88,0.00,,,0.00,148.0,meteohub,2013-05-19 16:07:00,
2013-05-19 11:12:00,73.9,70.2,30.00,SW,214,3.0,7.0,88,0.00,,,0.00,102.0,meteohub,2013-05-19 16:12:00,
2013-05-19 11:17:00,73.9,70.2,30.00,South,173,1.0,8.0,88,0.00,,,0.00,141.0,meteohub,2013-05-19 16:17:00,
2013-05-19 11:22:00,73.9,70.2,30.01,SSW,204,4.0,8.0,88,0.00,,,0.00,239.0,meteohub,2013-05-19 16:22:00,
2013-05-19 11:27:00,74.1,70.3,30.01,WSW,250,5.0,8.0,88,0.00,,,0.00,134.0,meteohub,2013-05-19 16:27:00,
2013-05-19 11:32:00,74.3,70.2,30.01,SW,215,1.0,6.0,87,0.00,,,0.00,93.0,meteohub,2013-05-19 16:32:00,
2013-05-19 11:37:00,74.5,70.3,30.01,SSE,160,2.0,5.0,87,0.00,,,0.00,102.0,meteohub,2013-05-19 16:37:00,
2013-05-19 11:42:00,74.5,70.3,30.01,SW,216,1.0,5.0,87,0.00,,,0.00,172.0,meteohub,2013-05-19 16:42:00,
2013-05-19 11:47:00,74.5,70.3,30.01,WSW,257,5.0,5.0,87,0.00,,,0.00,288.0,meteohub,2013-05-19 16:47:00,
2013-05-19 11:52:00,74.5,70.3,30.01,WSW,253,6.0,6.0,87,0.00,,,0.00,211.0,meteohub,2013-05-19 16:52:00,
2013-05-19 11:57:00,74.5,70.0,30.01,WSW,252,2.0,6.0,86,0.00,,,0.00,139.0,meteohub,2013-05-19 16:57:00,
2013-05-19 12:02:00,74.7,70.2,30.01,SW,224,2.0,6.0,86,0.00,,,0.00,98.0,meteohub,2013-05-19 17:02:00,
2013-05-19 12:07:00,74.8,70.3,30.01,SW,214,4.0,6.0,86,0.00,,,0.00,102.0,meteohub,2013-05-19 17:07:00,
2013-05-19 12:12:00,74.7,70.2,30.01,SSW,196,1.0,5.0,86,0.00,,,0.00,132.0,meteohub,2013-05-19 17:12:00,
2013-05-19 12:17:00,74.7,70.2,30.01,SSW,207,3.0,5.0,86,0.00,,,0.00,165.0,meteohub,2013-05-19 17:17:00,
2013-05-19 12:22:00,74.5,70.0,30.01,WSW,253,0.0,5.0,86,0.00,,,0.00,230.0,meteohub,2013-05-19 17:22:00,
2013-05-19 12:27:00,74.5,70.3,30.01,WSW,252,0.0,5.0,87,0.00,,,0.00,288.0,meteohub,2013-05-19 17:27:00,
2013-05-19 12:32:00,74.7,70.5,30.01,SW,234,3.0,5.0,87,0.00,,,0.00,253.0,meteohub,2013-05-19 17:32:00,
2013-05-19 12:37:00,74.7,70.2,30.01,WSW,246,1.0,5.0,86,0.00,,,0.00,355.0,meteohub,2013-05-19 17:37:00,
2013-05-19 12:42:00,74.8,70.3,30.01,WSW,251,4.0,5.0,86,0.00,,,0.00,425.0,meteohub,2013-05-19 17:42:00,
2013-05-19 12:47:00,75.0,70.5,30.01,SSW,209,3.0,6.0,86,0.00,,,0.00,366.0,meteohub,2013-05-19 17:47:00,
2013-05-19 12:52:00,75.2,70.7,30.01,SSW,206,4.0,6.0,86,0.00,,,0.00,290.0,meteohub,2013-05-19 17:52:00,
2013-05-19 12:57:00,75.4,70.5,30.01,SW,230,3.0,6.0,85,0.00,,,0.00,306.0,meteohub,2013-05-19 17:57:00,
2013-05-19 13:02:00,75.4,70.9,30.00,WSW,249,3.0,7.0,86,0.00,,,0.00,462.0,meteohub,2013-05-19 18:02:00,
2013-05-19 13:07:00,75.4,70.2,30.00,SW,225,1.0,7.0,84,0.00,,,0.00,452.0,meteohub,2013-05-19 18:07:00,
2013-05-19 13:12:00,75.7,70.5,30.00,WNW,284,1.0,6.0,84,0.00,,,0.00,160.0,meteohub,2013-05-19 18:12:00,
2013-05-19 13:17:00,75.7,70.2,30.00,WSW,240,3.0,5.0,83,0.00,,,0.00,336.0,meteohub,2013-05-19 18:17:00,
2013-05-19 13:22:00,75.9,70.3,29.99,SW,222,2.0,5.0,83,0.00,,,0.00,418.0,meteohub,2013-05-19 18:22:00,
2013-05-19 13:27:00,76.1,70.5,29.99,South,184,2.0,5.0,83,0.00,,,0.00,533.0,meteohub,2013-05-19 18:27:00,
2013-05-19 13:32:00,76.6,71.1,29.99,SW,224,5.0,5.0,83,0.00,,,0.00,478.0,meteohub,2013-05-19 18:32:00,
2013-05-19 13:37:00,76.6,70.7,29.99,WSW,239,5.0,6.0,82,0.00,,,0.00,446.0,meteohub,2013-05-19 18:37:00,
2013-05-19 13:42:00,77.0,71.1,29.99,WSW,250,5.0,7.0,82,0.00,,,0.00,490.0,meteohub,2013-05-19 18:42:00,
2013-05-19 13:47:00,77.2,70.9,29.99,SW,230,6.0,7.0,81,0.00,,,0.00,476.0,meteohub,2013-05-19 18:47:00,
2013-05-19 13:52:00,77.0,70.3,29.99,WSW,246,4.0,9.0,80,0.00,,,0.00,510.0,meteohub,2013-05-19 18:52:00,
2013-05-19 13:57:00,77.0,70.7,29.99,West,270,5.0,9.0,81,0.00,,,0.00,492.0,meteohub,2013-05-19 18:57:00,
2013-05-19 14:02:00,77.2,70.9,29.99,WNW,290,6.0,9.0,81,0.00,,,0.00,585.0,meteohub,2013-05-19 19:02:00,
2013-05-19 14:07:00,77.4,71.4,29.99,SW,236,3.0,8.0,82,0.00,,,0.00,531.0,meteohub,2013-05-19 19:07:00,
2013-05-19 14:12:00,77.5,70.9,29.99,South,173,3.0,8.0,80,0.00,,,0.00,450.0,meteohub,2013-05-19 19:12:00,
2013-05-19 14:17:00,77.7,70.7,29.98,WSW,240,4.0,8.0,79,0.00,,,0.00,487.0,meteohub,2013-05-19 19:17:00,
2013-05-19 14:22:00,78.1,70.7,29.98,South,179,3.0,9.0,78,0.00,,,0.00,728.0,meteohub,2013-05-19 19:22:00,
2013-05-19 14:27:00,78.1,70.7,29.98,SW,234,9.0,9.0,78,0.00,,,0.00,566.0,meteohub,2013-05-19 19:27:00,
2013-05-19 14:32:00,78.3,70.5,29.98,SSE,165,1.0,9.0,77,0.00,,,0.00,403.0,meteohub,2013-05-19 19:32:00,
2013-05-19 14:37:00,78.3,70.5,29.98,WSW,257,7.0,9.0,77,0.00,,,0.00,390.0,meteohub,2013-05-19 19:37:00,
2013-05-19 14:42:00,78.4,70.7,29.98,South,182,3.0,9.0,77,0.00,,,0.00,404.0,meteohub,2013-05-19 19:42:00,
2013-05-19 14:47:00,78.4,70.2,29.98,SSW,198,7.0,7.0,76,0.00,,,0.00,387.0,meteohub,2013-05-19 19:47:00,
2013-05-19 14:52:00,78.4,69.4,29.98,SSE,158,3.0,8.0,74,0.00,,,0.00,383.0,meteohub,2013-05-19 19:52:00,
2013-05-19 14:57:00,78.6,70.0,29.98,South,172,3.0,8.0,75,0.00,,,0.00,345.0,meteohub,2013-05-19 19:57:00,
2013-05-19 15:02:00,78.8,69.8,29.97,SSW,212,4.0,8.0,74,0.00,,,0.00,360.0,meteohub,2013-05-19 20:02:00,
2013-05-19 15:07:00,78.8,69.4,29.97,WSW,242,2.0,7.0,73,0.00,,,0.00,462.0,meteohub,2013-05-19 20:07:00,
2013-05-19 15:12:00,79.0,70.0,29.97,South,184,4.0,7.0,74,0.00,,,0.00,476.0,meteohub,2013-05-19 20:12:00,
2013-05-19 15:17:00,79.2,70.5,29.97,SE,131,1.0,7.0,75,0.00,,,0.00,334.0,meteohub,2013-05-19 20:17:00,
2013-05-19 15:22:00,79.5,70.5,29.97,SSE,162,3.0,7.0,74,0.00,,,0.00,355.0,meteohub,2013-05-19 20:22:00,
2013-05-19 15:27:00,79.3,70.3,29.97,South,169,2.0,7.0,74,0.00,,,0.00,292.0,meteohub,2013-05-19 20:27:00,
2013-05-19 15:32:00,79.0,69.6,29.97,SW,222,6.0,8.0,73,0.00,,,0.00,271.0,meteohub,2013-05-19 20:32:00,
2013-05-19 15:37:00,79.0,69.6,29.96,SSW,196,2.0,8.0,73,0.00,,,0.00,415.0,meteohub,2013-05-19 20:37:00,
2013-05-19 15:42:00,79.3,70.0,29.96,SSE,160,4.0,8.0,73,0.00,,,0.00,281.0,meteohub,2013-05-19 20:42:00,
2013-05-19 15:47:00,79.3,70.0,29.96,SSW,195,7.0,8.0,73,0.00,,,0.00,461.0,meteohub,2013-05-19 20:47:00,
2013-05-19 15:52:00,79.3,69.4,29.96,SE,142,6.0,11.0,72,0.00,,,0.00,492.0,meteohub,2013-05-19 20:52:00,
2013-05-19 15:57:00,79.3,69.4,29.96,SSE,164,3.0,11.0,72,0.00,,,0.00,492.0,meteohub,2013-05-19 20:57:00,
2013-05-19 16:02:00,79.3,69.4,29.96,SSW,207,5.0,11.0,72,0.00,,,0.00,397.0,meteohub,2013-05-19 21:02:00,
2013-05-19 16:07:00,79.3,70.0,29.95,SSE,154,4.0,9.0,73,0.00,,,0.00,239.0,meteohub,2013-05-19 21:07:00,
2013-05-19 16:12:00,79.2,69.3,29.95,SW,224,4.0,9.0,72,0.00,,,0.00,287.0,meteohub,2013-05-19 21:12:00,
2013-05-19 16:17:00,79.3,70.0,29.95,SSW,201,3.0,9.0,73,0.00,,,0.00,313.0,meteohub,2013-05-19 21:17:00,
2013-05-19 16:22:00,79.3,70.0,29.95,South,178,2.0,9.0,73,0.00,,,0.00,272.0,meteohub,2013-05-19 21:22:00,
2013-05-19 16:27:00,79.5,70.2,29.95,South,180,4.0,9.0,73,0.00,,,0.00,255.0,meteohub,2013-05-19 21:27:00,
2013-05-19 16:32:00,79.3,70.3,29.95,SSW,200,3.0,9.0,74,0.00,,,0.00,251.0,meteohub,2013-05-19 21:32:00,
2013-05-19 16:37:00,79.3,70.0,29.95,SSE,161,3.0,9.0,73,0.00,,,0.00,251.0,meteohub,2013-05-19 21:37:00,
2013-05-19 16:42:00,79.3,70.0,29.95,South,175,3.0,9.0,73,0.00,,,0.00,248.0,meteohub,2013-05-19 21:42:00,
2013-05-19 16:47:00,79.3,70.0,29.95,SSW,209,5.0,7.0,73,0.00,,,0.00,250.0,meteohub,2013-05-19 21:47:00,
2013-05-19 16:52:00,79.3,70.0,29.95,WSW,239,3.0,7.0,73,0.00,,,0.00,250.0,meteohub,2013-05-19 21:52:00,
2013-05-19 16:57:00,79.5,70.2,29.95,SW,234,5.0,8.0,73,0.00,,,0.00,248.0,meteohub,2013-05-19 21:57:00,
2013-05-19 17:02:00,79.5,69.6,29.95,SW,217,3.0,9.0,72,0.00,,,0.00,258.0,meteohub,2013-05-19 22:02:00,
2013-05-19 17:07:00,79.7,70.3,29.95,SSW,200,3.0,9.0,73,0.00,,,0.00,301.0,meteohub,2013-05-19 22:07:00,
2013-05-19 17:12:00,79.7,69.8,29.95,SW,214,4.0,9.0,72,0.00,,,0.00,330.0,meteohub,2013-05-19 22:12:00,
2013-05-19 17:17:00,79.9,70.0,29.96,SSW,202,2.0,5.0,72,0.00,,,0.00,325.0,meteohub,2013-05-19 22:17:00,
2013-05-19 17:22:00,80.1,70.2,29.96,WSW,257,0.0,5.0,72,0.00,,,0.00,306.0,meteohub,2013-05-19 22:22:00,
2013-05-19 17:27:00,80.2,70.0,29.96,WSW,250,2.0,5.0,71,0.00,,,0.00,251.0,meteohub,2013-05-19 22:27:00,
2013-05-19 17:32:00,80.2,70.0,29.96,SSW,198,3.0,5.0,71,0.00,,,0.00,227.0,meteohub,2013-05-19 22:32:00,
2013-05-19 17:37:00,80.1,70.2,29.96,South,174,2.0,5.0,72,0.00,,,0.00,213.0,meteohub,2013-05-19 22:37:00,
2013-05-19 17:42:00,80.1,69.8,29.96,South,190,2.0,5.0,71,0.00,,,0.00,190.0,meteohub,2013-05-19 22:42:00,
2013-05-19 17:47:00,80.2,70.0,29.96,SSE,165,2.0,5.0,71,0.00,,,0.00,179.0,meteohub,2013-05-19 22:47:00,
2013-05-19 17:52:00,80.2,69.6,29.96,South,184,2.0,4.0,70,0.00,,,0.00,197.0,meteohub,2013-05-19 22:52:00,
2013-05-19 17:57:00,80.1,69.4,29.96,South,182,2.0,5.0,70,0.00,,,0.00,218.0,meteohub,2013-05-19 22:57:00,
2013-05-19 18:02:00,80.1,69.4,29.96,SW,214,3.0,5.0,70,0.00,,,0.00,227.0,meteohub,2013-05-19 23:02:00,
2013-05-19 18:07:00,80.2,69.1,29.96,SW,220,4.0,5.0,69,0.00,,,0.00,211.0,meteohub,2013-05-19 23:07:00,
2013-05-19 18:12:00,80.2,69.6,29.96,SSW,198,2.0,5.0,70,0.00,,,0.00,134.0,meteohub,2013-05-19 23:12:00,
2013-05-19 18:17:00,80.2,69.6,29.96,ESE,113,0.0,5.0,70,0.00,,,0.00,98.0,meteohub,2013-05-19 23:17:00,
2013-05-19 18:22:00,80.4,70.5,29.96,East,86,1.0,5.0,72,0.00,,,0.00,90.0,meteohub,2013-05-19 23:22:00,
2013-05-19 18:27:00,80.4,70.5,29.96,ENE,77,5.0,7.0,72,0.00,,,0.00,62.0,meteohub,2013-05-19 23:27:00,
2013-05-19 18:32:00,80.1,70.7,29.97,East,84,3.0,8.0,73,0.00,,,0.00,49.0,meteohub,2013-05-19 23:32:00,
2013-05-19 18:37:00,79.7,70.3,29.97,East,80,5.0,8.0,73,0.00,,,0.00,46.0,meteohub,2013-05-19 23:37:00,
2013-05-19 18:42:00,79.9,70.5,29.97,SE,132,4.0,8.0,73,0.00,,,0.00,44.0,meteohub,2013-05-19 23:42:00,
2013-05-19 18:47:00,79.5,70.5,29.97,ENE,74,2.0,8.0,74,0.00,,,0.00,42.0,meteohub,2013-05-19 23:47:00,
2013-05-19 18:52:00,79.5,70.5,29.98,East,87,5.0,7.0,74,0.00,,,0.00,37.0,meteohub,2013-05-19 23:52:00,
2013-05-19 18:57:00,79.3,70.7,29.98,ENE,78,4.0,7.0,75,0.00,,,0.00,30.0,meteohub,2013-05-19 23:57:00,
2013-05-19 19:02:00,79.0,70.7,29.98,East,82,8.0,8.0,76,0.00,,,0.00,23.0,meteohub,2013-05-20 00:02:00,
2013-05-19 19:07:00,79.0,70.7,29.98,ESE,104,4.0,9.0,76,0.00,,,0.00,16.0,meteohub,2013-05-20 00:07:00,
2013-05-19 19:12:00,78.6,70.9,29.99,East,84,6.0,9.0,77,0.00,,,0.00,12.0,meteohub,2013-05-20 00:12:00,
2013-05-19 19:17:00,78.4,70.7,29.99,ENE,76,7.0,9.0,77,0.00,,,0.00,7.0,meteohub,2013-05-20 00:17:00,
2013-05-19 19:22:00,78.4,70.7,29.99,East,88,5.0,9.0,77,0.00,,,0.00,5.0,meteohub,2013-05-20 00:22:00,
2013-05-19 19:27:00,78.4,71.1,30.00,ESE,108,4.0,9.0,78,0.00,,,0.00,5.0,meteohub,2013-05-20 00:27:00,
2013-05-19 19:32:00,78.3,70.9,30.00,ENE,58,1.0,8.0,78,0.00,,,0.00,0.0,meteohub,2013-05-20 00:32:00,
2013-05-19 19:37:00,78.4,71.1,30.00,NE,56,4.0,8.0,78,0.00,,,0.00,0.0,meteohub,2013-05-20 00:37:00,
2013-05-19 19:42:00,78.3,70.0,30.00,East,96,11.0,11.0,76,0.00,,,0.00,0.0,meteohub,2013-05-20 00:42:00,
2013-05-19 19:47:00,77.5,67.8,30.01,ESE,121,13.0,19.0,72,0.00,,,0.00,0.0,meteohub,2013-05-20 00:47:00,
2013-05-19 19:52:00,77.0,66.4,30.01,ENE,75,9.0,19.0,70,0.00,,,0.00,0.0,meteohub,2013-05-20 00:52:00,
2013-05-19 19:57:00,76.3,66.2,30.00,ENE,78,8.0,19.0,71,0.00,,,0.00,0.0,meteohub,2013-05-20 00:57:00,
2013-05-19 20:02:00,76.1,65.1,30.00,East,101,9.0,15.0,69,0.00,,,0.00,0.0,meteohub,2013-05-20 01:02:00,
2013-05-19 20:07:00,75.6,63.9,30.00,ESE,117,5.0,15.0,67,0.00,,,0.00,0.0,meteohub,2013-05-20 01:07:00,
2013-05-19 20:12:00,75.4,63.7,30.00,ESE,102,9.0,16.0,67,0.00,,,0.00,0.0,meteohub,2013-05-20 01:12:00,
2013-05-19 20:17:00,75.6,64.2,29.99,SSE,148,4.0,16.0,68,0.00,,,0.00,0.0,meteohub,2013-05-20 01:17:00,
2013-05-19 20:22:00,75.6,65.1,29.99,East,99,3.0,16.0,70,0.00,,,0.00,0.0,meteohub,2013-05-20 01:22:00,
2013-05-19 20:27:00,75.4,64.9,29.99,SE,128,7.0,12.0,70,0.00,,,0.00,0.0,meteohub,2013-05-20 01:27:00,
2013-05-19 20:32:00,75.2,65.1,29.99,ESE,110,2.0,12.0,71,0.00,,,0.00,0.0,meteohub,2013-05-20 01:32:00,
2013-05-19 20:37:00,75.2,64.8,29.98,East,98,6.0,12.0,70,0.00,,,0.00,0.0,meteohub,2013-05-20 01:37:00,
2013-05-19 20:42:00,74.8,64.4,29.98,SSE,154,4.0,13.0,70,0.00,,,0.00,0.0,meteohub,2013-05-20 01:42:00,
2013-05-19 20:47:00,74.5,64.4,29.98,SSE,150,4.0,13.0,71,0.00,,,0.00,0.0,meteohub,2013-05-20 01:47:00,
2013-05-19 20:52:00,74.5,64.0,29.98,East,79,2.0,9.0,70,0.00,,,0.00,0.0,meteohub,2013-05-20 01:52:00,
2013-05-19 20:58:00,74.1,64.0,29.99,ESE,108,5.0,8.0,71,0.00,,,0.00,0.0,meteohub,2013-05-20 01:58:00,
2013-05-19 21:03:00,73.6,63.7,29.99,SSE,167,2.0,8.0,71,0.00,,,0.00,0.0,meteohub,2013-05-20 02:03:00,
2013-05-19 21:08:00,73.0,63.5,29.98,SE,134,7.0,8.0,72,0.00,,,0.00,0.0,meteohub,2013-05-20 02:08:00,
2013-05-19 21:13:00,72.9,63.3,29.99,South,169,7.0,8.0,72,0.00,,,0.00,0.0,meteohub,2013-05-20 02:13:00,
2013-05-19 21:18:00,72.5,63.7,29.99,SSW,192,5.0,8.0,74,0.00,,,0.00,0.0,meteohub,2013-05-20 02:18:00,
2013-05-19 21:23:00,72.3,63.5,29.98,South,188,6.0,8.0,74,0.00,,,0.00,0.0,meteohub,2013-05-20 02:23:00,
2013-05-19 21:28:00,72.1,63.9,29.99,South,180,4.0,8.0,75,0.00,,,0.00,0.0,meteohub,2013-05-20 02:28:00,
2013-05-19 21:33:00,72.3,64.4,29.99,SSE,159,1.0,8.0,76,0.00,,,0.00,0.0,meteohub,2013-05-20 02:33:00,
2013-05-19 21:38:00,72.7,64.2,29.98,SSE,165,3.0,8.0,75,0.00,,,0.00,0.0,meteohub,2013-05-20 02:38:00,
2013-05-19 21:43:00,72.3,63.9,29.98,South,191,7.0,8.0,75,0.00,,,0.00,0.0,meteohub,2013-05-20 02:43:00,
2013-05-19 21:48:00,72.1,63.9,29.98,SSE,167,5.0,7.0,75,0.00,,,0.00,0.0,meteohub,2013-05-20 02:48:00,
2013-05-19 21:53:00,72.3,63.9,29.98,South,175,3.0,9.0,75,0.00,,,0.00,0.0,meteohub,2013-05-20 02:53:00,
2013-05-19 21:58:00,72.3,63.9,29.98,South,181,4.0,9.0,75,0.00,,,0.00,0.0,meteohub,2013-05-20 02:58:00,
2013-05-19 22:03:00,72.3,63.9,29.97,SSW,209,6.0,9.0,75,0.00,,,0.00,0.0,meteohub,2013-05-20 03:03:00,
2013-05-19 22:08:00,72.3,63.9,29.97,SSW,198,3.0,11.0,75,0.00,,,0.00,0.0,meteohub,2013-05-20 03:08:00,
2013-05-19 22:13:00,72.7,64.2,29.97,South,175,4.0,11.0,75,0.00,,,0.00,0.0,meteohub,2013-05-20 03:13:00,
2013-05-19 22:18:00,72.7,63.9,29.97,SW,227,6.0,11.0,74,0.00,,,0.00,0.0,meteohub,2013-05-20 03:18:00,
2013-05-19 22:23:00,72.7,63.9,29.97,SSW,207,7.0,11.0,74,0.00,,,0.00,0.0,meteohub,2013-05-20 03:23:00,
2013-05-19 22:28:00,72.3,63.9,29.97,South,190,7.0,11.0,75,0.00,,,0.00,0.0,meteohub,2013-05-20 03:28:00,
2013-05-19 22:33:00,72.1,63.9,29.97,South,188,1.0,8.0,75,0.00,,,0.00,0.0,meteohub,2013-05-20 03:33:00,
2013-05-19 22:38:00,72.1,63.9,29.97,SSW,213,2.0,7.0,75,0.00,,,0.00,0.0,meteohub,2013-05-20 03:38:00,
2013-05-19 22:43:00,72.0,63.7,29.97,SW,224,2.0,7.0,75,0.00,,,0.00,0.0,meteohub,2013-05-20 03:43:00,
2013-05-19 22:48:00,72.0,63.7,29.96,SSW,198,1.0,9.0,75,0.00,,,0.00,0.0,meteohub,2013-05-20 03:48:00,
2013-05-19 22:53:00,72.0,63.7,29.96,SSW,196,2.0,9.0,75,0.00,,,0.00,0.0,meteohub,2013-05-20 03:53:00,
2013-05-19 22:58:00,72.0,63.7,29.96,South,191,2.0,9.0,75,0.00,,,0.00,0.0,meteohub,2013-05-20 03:58:00,
2013-05-19 23:01:00,72.1,63.9,29.96,SSW,207,5.0,9.0,75,0.00,,,0.00,0.0,meteohub,2013-05-20 04:01:00,
2013-05-19 23:06:00,72.3,63.5,29.95,SSW,200,3.0,9.0,74,0.00,,,0.00,0.0,meteohub,2013-05-20 04:06:00,
2013-05-19 23:11:00,72.5,63.7,29.95,SE,128,3.0,9.0,74,0.00,,,0.00,0.0,meteohub,2013-05-20 04:11:00,
2013-05-19 23:16:00,72.7,63.5,29.95,SSW,194,3.0,8.0,73,0.00,,,0.00,0.0,meteohub,2013-05-20 04:16:00,
2013-05-19 23:21:00,72.9,63.3,29.95,SSE,149,0.0,9.0,72,0.00,,,0.00,0.0,meteohub,2013-05-20 04:21:00,
2013-05-19 23:26:00,72.9,63.3,29.95,SSE,154,3.0,9.0,72,0.00,,,0.00,0.0,meteohub,2013-05-20 04:26:00,
2013-05-19 23:31:00,72.9,63.0,29.95,South,183,2.0,9.0,71,0.00,,,0.00,0.0,meteohub,2013-05-20 04:31:00,
2013-05-19 23:36:00,72.9,63.3,29.95,SSE,161,4.0,7.0,72,0.00,,,0.00,0.0,meteohub,2013-05-20 04:36:00,
2013-05-19 23:41:00,72.9,63.3,29.95,South,184,1.0,7.0,72,0.00,,,0.00,0.0,meteohub,2013-05-20 04:41:00,
2013-05-19 23:46:00,72.9,63.3,29.95,South,189,1.0,7.0,72,0.00,,,0.00,0.0,meteohub,2013-05-20 04:46:00,
2013-05-19 23:51:00,72.9,63.3,29.95,South,173,2.0,6.0,72,0.00,,,0.00,0.0,meteohub,2013-05-20 04:51:00,
2013-05-19 23:56:00,72.9,63.3,29.95,SSE,162,2.0,5.0,72,0.00,,,0.00,0.0,meteohub,2013-05-20 04:56:00,